Time;durP1;ratioP1;P1;durP2;ratioP2;P2;SDS_P1;SDS_P2;PMS_P1;PMS_P2;Temp;Humidity;BMP_temperature;BMP_pressure;BME280_temperature;BME280_humidity;BME280_pressure;Samples;Min_cycle;Max_cycle;Signal;HPM_P1;HPM_P2
2021/03/29 00:00:18;;;;;;;2.05;1.85;;;9.20;72.40;;;;;;5073996;28;20123;-71
2021/03/29 00:02:43;;;;;;;1.85;1.70;;;9.20;72.40;;;;;;5072604;28;20024;-70
2021/03/29 00:05:10;;;;;;;2.78;1.38;;;9.10;72.40;;;;;;5074013;28;20035;-70
2021/03/29 00:07:37;;;;;;;1.42;1.08;;;9.10;72.40;;;;;;5074448;28;20017;-70
2021/03/29 00:10:07;;;;;;;1.95;1.75;;;9.10;72.40;;;;;;5073758;28;20096;-70
2021/03/29 00:12:35;;;;;;;2.58;1.70;;;9.10;72.50;;;;;;5073779;28;20029;-70
2021/03/29 00:15:02;;;;;;;1.60;1.50;;;9.00;72.60;;;;;;5072339;28;20029;-71
2021/03/29 00:17:28;;;;;;;1.60;1.50;;;9.00;72.60;;;;;;5074424;28;20044;-70
2021/03/29 00:19:53;;;;;;;2.53;2.33;;;9.00;72.60;;;;;;5073469;28;20442;-70
2021/03/29 00:22:20;;;;;;;3.05;1.50;;;9.00;72.60;;;;;;5073672;28;20048;-70
2021/03/29 00:24:46;;;;;;;3.13;1.75;;;9.00;72.60;;;;;;5073591;28;20115;-70
2021/03/29 00:27:11;;;;;;;1.40;1.30;;;9.00;72.60;;;;;;5073570;28;20484;-70
2021/03/29 00:29:37;;;;;;;1.58;1.42;;;9.00;72.70;;;;;;5073618;28;20025;-70
2021/03/29 00:32:03;;;;;;;3.15;1.85;;;9.00;72.70;;;;;;5073496;28;20024;-70
2021/03/29 00:34:30;;;;;;;1.77;1.40;;;8.90;72.60;;;;;;5072135;28;20036;-69
2021/03/29 00:36:56;;;;;;;2.72;1.83;;;8.90;72.60;;;;;;5073370;28;20016;-70
2021/03/29 00:39:23;;;;;;;5.13;1.60;;;8.90;72.60;;;;;;5072116;28;20031;-70
2021/03/29 00:41:50;;;;;;;1.98;1.67;;;8.90;72.70;;;;;;5073014;28;20035;-70
2021/03/29 00:44:16;;;;;;;1.33;1.23;;;8.90;72.60;;;;;;5073745;28;20028;-71
2021/03/29 00:46:43;;;;;;;1.58;1.48;;;8.90;72.70;;;;;;5071980;28;20031;-70
2021/03/29 00:49:09;;;;;;;1.40;1.30;;;8.90;72.70;;;;;;5073116;28;20410;-70
2021/03/29 00:51:36;;;;;;;1.10;1.10;;;8.90;72.70;;;;;;5073136;28;20021;-70
2021/03/29 00:54:04;;;;;;;1.85;1.65;;;8.90;72.80;;;;;;5073610;28;20031;-70
2021/03/29 00:56:32;;;;;;;1.33;1.17;;;8.90;72.80;;;;;;5073064;28;20024;-70
2021/03/29 00:59:01;;;;;;;1.52;1.20;;;8.90;72.80;;;;;;5073585;28;20020;-70
2021/03/29 01:01:36;;;;;;;2.20;1.50;;;8.90;72.80;;;;;;5072948;28;20477;-70
2021/03/29 01:04:03;;;;;;;1.42;1.33;;;8.90;73.40;;;;;;5073513;28;20497;-70
2021/03/29 01:06:33;;;;;;;2.08;1.45;;;8.90;72.80;;;;;;5072930;28;20441;-70
2021/03/29 01:09:07;;;;;;;1.05;0.95;;;8.90;72.80;;;;;;5073442;28;20373;-71
2021/03/29 01:11:37;;;;;;;1.55;1.23;;;8.80;72.70;;;;;;5072880;28;20449;-70
2021/03/29 01:14:14;;;;;;;2.47;1.27;;;8.80;72.70;;;;;;5072975;28;20481;-71
2021/03/29 01:16:50;;;;;;;1.67;1.52;;;8.80;72.70;;;;;;5072992;28;20024;-70
2021/03/29 01:19:37;;;;;;;3.85;1.98;;;8.80;72.80;;;;;;5072707;28;20049;-70
2021/03/29 01:22:07;;;;;;;2.42;1.85;;;8.90;72.80;;;;;;5072824;28;20461;-71
2021/03/29 01:24:53;;;;;;;2.22;1.70;;;8.80;72.70;;;;;;5071552;28;20107;-70
2021/03/29 01:27:24;;;;;;;3.65;2.85;;;8.90;72.80;;;;;;5072978;28;20465;-70
2021/03/29 01:29:52;;;;;;;2.88;1.80;;;8.90;72.80;;;;;;5072833;28;20080;-71
2021/03/29 01:32:18;;;;;;;1.23;1.13;;;8.90;72.80;;;;;;5071456;28;20036;-71
2021/03/29 01:34:45;;;;;;;3.05;1.63;;;8.90;72.80;;;;;;5073303;28;20461;-70
2021/03/29 01:37:11;;;;;;;3.45;1.90;;;9.00;72.80;;;;;;5073212;28;20107;-70
2021/03/29 01:39:39;;;;;;;3.05;1.92;;;8.90;72.70;;;;;;5073100;28;20367;-70
2021/03/29 01:42:06;;;;;;;2.63;2.00;;;9.00;72.80;;;;;;5073176;28;20024;-70
2021/03/29 01:44:32;;;;;;;2.72;1.95;;;9.10;72.70;;;;;;5073493;28;20032;-71
2021/03/29 01:46:58;;;;;;;4.72;1.88;;;9.10;72.50;;;;;;5072631;28;20027;-71
2021/03/29 01:49:25;;;;;;;3.00;2.05;;;9.20;72.50;;;;;;5072546;28;20021;-70
2021/03/29 01:51:51;;;;;;;2.47;1.58;;;9.20;72.40;;;;;;5072517;28;20370;-70
2021/03/29 01:54:18;;;;;;;2.28;1.70;;;9.30;72.40;;;;;;5075725;28;20016;-70
2021/03/29 01:56:43;;;;;;;2.17;1.92;;;9.30;72.40;;;;;;5076916;28;20484;-70
2021/03/29 01:59:09;;;;;;;2.03;1.52;;;9.30;72.30;;;;;;5076285;28;20032;-70
2021/03/29 02:01:35;;;;;;;2.97;1.55;;;9.40;72.40;;;;;;5076156;28;20107;-70
2021/03/29 02:04:01;;;;;;;2.83;1.77;;;9.40;72.30;;;;;;5076273;28;20021;-72
2021/03/29 02:06:27;;;;;;;2.08;1.63;;;9.40;72.30;;;;;;5076053;28;20539;-70
2021/03/29 02:08:55;;;;;;;3.83;2.00;;;9.40;72.30;;;;;;5076123;28;20027;-71
2021/03/29 02:11:22;;;;;;;1.58;1.25;;;9.50;72.30;;;;;;5076109;28;20021;-70
2021/03/29 02:13:50;;;;;;;1.67;1.40;;;9.50;72.20;;;;;;5076217;28;20036;-70
2021/03/29 02:16:17;;;;;;;3.75;1.80;;;9.50;72.20;;;;;;5075989;28;20024;-70
2021/03/29 02:18:45;;;;;;;1.42;1.30;;;9.50;72.20;;;;;;5075694;28;20044;-71
2021/03/29 02:21:15;;;;;;;1.75;1.58;;;9.50;72.20;;;;;;5075863;28;20124;-70
2021/03/29 02:23:48;;;;;;;2.90;1.50;;;9.50;72.30;;;;;;5076411;28;20020;-70
2021/03/29 02:26:13;;;;;;;2.30;1.83;;;9.50;72.30;;;;;;5075812;28;20024;-70
2021/03/29 02:28:40;;;;;;;2.47;1.80;;;9.50;72.20;;;;;;5075755;28;20438;-70
2021/03/29 02:31:06;;;;;;;1.60;1.38;;;9.60;72.20;;;;;;5075748;28;20047;-70
2021/03/29 02:33:33;;;;;;;2.58;1.73;;;9.60;72.20;;;;;;5076074;28;20370;-70
2021/03/29 02:35:58;;;;;;;2.20;1.73;;;9.50;72.20;;;;;;5075723;28;20020;-70
2021/03/29 02:38:25;;;;;;;4.03;2.58;;;9.50;72.30;;;;;;5075568;28;20027;-70
2021/03/29 02:40:52;;;;;;;3.35;2.00;;;9.50;72.40;;;;;;5075450;28;20033;-70
2021/03/29 02:43:19;;;;;;;1.92;1.45;;;9.50;72.30;;;;;;5076062;28;20021;-70
2021/03/29 02:45:56;;;;;;;3.15;2.03;;;9.50;72.40;;;;;;5075465;28;20430;-70
2021/03/29 02:48:25;;;;;;;1.98;1.60;;;9.50;72.50;;;;;;5075285;28;20458;-70
2021/03/29 02:50:53;;;;;;;3.88;2.25;;;9.40;72.50;;;;;;5074032;28;20020;-70
2021/03/29 02:53:33;;;;;;;2.25;1.60;;;9.40;72.50;;;;;;5074043;28;20479;-70
2021/03/29 02:56:02;;;;;;;3.58;2.25;;;9.40;72.50;;;;;;5075789;28;20514;-70
2021/03/29 02:58:29;;;;;;;3.03;2.00;;;9.30;72.60;;;;;;5075367;28;20111;-70
2021/03/29 03:00:56;;;;;;;2.53;1.50;;;9.30;72.70;;;;;;5075622;28;20029;-70
2021/03/29 03:03:22;;;;;;;3.03;2.35;;;9.30;72.80;;;;;;5074931;28;20104;-70
2021/03/29 03:05:52;;;;;;;3.35;2.70;;;9.30;72.80;;;;;;5075042;28;20060;-70
2021/03/29 03:08:18;;;;;;;2.80;1.38;;;9.20;72.80;;;;;;5075128;28;20066;-70
2021/03/29 03:10:45;;;;;;;2.35;1.65;;;9.20;72.80;;;;;;5073720;28;20031;-70
2021/03/29 03:13:12;;;;;;;2.58;1.50;;;9.20;72.80;;;;;;5075553;28;20020;-70
2021/03/29 03:15:38;;;;;;;1.75;1.65;;;9.20;72.80;;;;;;5074946;28;20059;-70
2021/03/29 03:18:06;;;;;;;1.85;1.63;;;9.20;72.80;;;;;;5074647;28;20016;-70
2021/03/29 03:20:34;;;;;;;2.08;1.80;;;9.10;72.80;;;;;;5074795;28;20072;-70
2021/03/29 03:23:07;;;;;;;2.60;1.92;;;9.10;72.80;;;;;;5074683;28;20515;-70
2021/03/29 03:25:39;;;;;;;3.55;1.60;;;9.20;72.80;;;;;;5074759;28;20040;-70
2021/03/29 03:28:07;;;;;;;2.08;1.55;;;9.10;72.90;;;;;;5074691;28;20360;-70
2021/03/29 03:30:37;;;;;;;2.63;1.92;;;9.10;72.90;;;;;;5074908;28;20028;-70
2021/03/29 03:33:04;;;;;;;4.07;2.72;;;9.10;72.90;;;;;;5074527;28;20498;-70
2021/03/29 03:35:30;;;;;;;3.63;2.30;;;9.00;72.90;;;;;;5074609;28;20039;-70
2021/03/29 03:38:17;;;;;;;1.67;1.48;;;9.00;72.90;;;;;;5075003;28;20029;-70
2021/03/29 03:40:47;;;;;;;2.65;1.92;;;9.00;73.00;;;;;;5074932;28;20041;-70
2021/03/29 03:43:17;;;;;;;2.47;1.90;;;9.00;73.00;;;;;;5074487;28;20108;-70
2021/03/29 03:45:49;;;;;;;2.05;1.60;;;9.00;73.00;;;;;;5074335;28;20038;-71
2021/03/29 03:48:17;;;;;;;2.00;1.70;;;8.90;72.90;;;;;;5073080;28;20500;-71
2021/03/29 03:50:47;;;;;;;3.53;2.58;;;8.90;73.00;;;;;;5074339;28;20035;-70
2021/03/29 03:53:13;;;;;;;;;;;8.90;73.10;;;;;;5074645;28;20028;-70
2021/03/29 03:55:39;;;;;;;2.05;1.85;;;8.80;72.90;;;;;;5074217;28;19910;-71
2021/03/29 03:58:05;;;;;;;3.28;2.05;;;8.80;73.10;;;;;;5074142;28;20065;-70
2021/03/29 04:00:30;;;;;;;2.17;1.65;;;8.80;73.10;;;;;;5073997;28;20031;-70
2021/03/29 04:02:56;;;;;;;2.55;1.65;;;8.80;73.10;;;;;;5074071;28;20044;-70
2021/03/29 04:05:22;;;;;;;5.97;2.40;;;8.80;73.00;;;;;;5074113;28;20078;-70
2021/03/29 04:07:50;;;;;;;3.03;2.10;;;8.90;73.00;;;;;;5073964;28;20496;-70
2021/03/29 04:10:22;;;;;;;2.92;2.58;;;8.90;73.00;;;;;;5074459;28;20045;-72
2021/03/29 04:12:57;;;;;;;2.40;1.90;;;8.90;72.90;;;;;;5074466;28;20481;-70
2021/03/29 04:15:22;;;;;;;4.60;2.40;;;8.90;72.80;;;;;;5073258;28;20066;-70
2021/03/29 04:17:48;;;;;;;5.35;2.53;;;9.00;72.80;;;;;;5073659;28;20485;-70
2021/03/29 04:20:15;;;;;;;3.83;2.55;;;9.00;72.70;;;;;;5072437;28;20032;-71
2021/03/29 04:22:41;;;;;;;4.38;2.65;;;9.00;72.70;;;;;;5073611;28;20067;-70
2021/03/29 04:25:09;;;;;;;2.60;1.95;;;9.00;72.70;;;;;;5073637;28;20017;-70
2021/03/29 04:27:35;;;;;;;2.25;1.60;;;9.10;72.80;;;;;;5073597;28;20040;-70
2021/03/29 04:30:02;;;;;;;2.03;1.63;;;9.00;72.70;;;;;;5073501;28;20484;-70
2021/03/29 04:32:28;;;;;;;1.85;1.73;;;9.00;72.70;;;;;;5073592;28;20025;-71
2021/03/29 04:34:53;;;;;;;2.53;1.58;;;9.00;72.70;;;;;;5074355;28;20096;-70
2021/03/29 04:37:19;;;;;;;2.67;1.45;;;9.00;72.80;;;;;;5073485;28;20056;-70
2021/03/29 04:39:44;;;;;;;1.70;1.48;;;9.00;72.70;;;;;;5072156;28;20025;-71
2021/03/29 04:42:10;;;;;;;2.90;1.60;;;9.00;72.80;;;;;;5073432;28;20020;-71
2021/03/29 04:44:35;;;;;;;4.20;1.63;;;9.00;72.80;;;;;;5073855;28;20027;-70
2021/03/29 04:47:01;;;;;;;2.35;1.92;;;9.00;72.90;;;;;;5073899;28;20094;-70
2021/03/29 04:49:27;;;;;;;2.42;2.00;;;9.00;72.90;;;;;;5074137;28;20021;-70
2021/03/29 04:51:52;;;;;;;5.10;1.30;;;9.00;72.90;;;;;;5073294;28;20035;-70
2021/03/29 04:54:19;;;;;;;2.42;1.40;;;9.00;72.90;;;;;;5073302;28;20016;-70
2021/03/29 04:56:45;;;;;;;1.17;1.10;;;9.10;72.80;;;;;;5073204;28;20025;-70
2021/03/29 04:59:10;;;;;;;2.30;1.48;;;9.10;72.70;;;;;;5073644;28;20069;-71
2021/03/29 05:01:36;;;;;;;3.47;1.40;;;9.10;72.60;;;;;;5073396;28;20028;-70
2021/03/29 05:04:02;;;;;;;1.45;1.35;;;9.10;72.60;;;;;;5073209;28;20028;-70
2021/03/29 05:06:30;;;;;;;1.23;1.13;;;9.10;73.30;;;;;;5073607;28;20107;-71
2021/03/29 05:08:55;;;;;;;1.45;1.35;;;9.10;72.80;;;;;;5073173;28;20013;-71
2021/03/29 05:11:21;;;;;;;1.88;1.35;;;9.00;72.80;;;;;;5073605;28;20027;-70
2021/03/29 05:13:47;;;;;;;1.05;1.00;;;9.00;72.90;;;;;;5073066;28;20016;-71
2021/03/29 05:16:12;;;;;;;1.75;1.30;;;9.00;72.90;;;;;;5071773;28;20024;-70
2021/03/29 05:18:38;;;;;;;1.00;1.00;;;9.00;73.00;;;;;;5072913;28;20517;-71
2021/03/29 05:21:03;;;;;;;1.55;1.00;;;9.00;73.10;;;;;;5071595;28;20036;-71
2021/03/29 05:23:29;;;;;;;1.40;1.30;;;8.90;73.00;;;;;;5072980;28;20100;-71
2021/03/29 05:25:54;;;;;;;3.80;1.58;;;9.00;73.00;;;;;;5073026;28;20381;-70
2021/03/29 05:28:20;;;;;;;3.80;1.42;;;9.00;73.00;;;;;;5074783;28;20058;-71
2021/03/29 05:30:45;;;;;;;1.50;1.40;;;9.00;73.10;;;;;;5077325;28;20024;-70
2021/03/29 05:33:11;;;;;;;1.63;1.27;;;9.00;73.10;;;;;;5077213;28;20013;-70
2021/03/29 05:35:37;;;;;;;1.73;1.25;;;9.00;73.10;;;;;;5076902;28;20033;-70
2021/03/29 05:38:02;;;;;;;2.20;1.50;;;9.00;73.20;;;;;;5077364;28;20019;-70
2021/03/29 05:40:28;;;;;;;2.83;1.17;;;9.00;73.20;;;;;;5076751;28;20115;-70
2021/03/29 05:42:54;;;;;;;4.30;2.17;;;9.00;73.20;;;;;;5077192;28;20526;-71
2021/03/29 05:45:20;;;;;;;1.38;1.27;;;9.00;73.20;;;;;;5077231;28;20024;-70
2021/03/29 05:47:46;;;;;;;2.20;1.67;;;9.00;73.10;;;;;;5076631;28;20040;-70
2021/03/29 05:50:14;;;;;;;1.75;1.58;;;9.00;73.10;;;;;;5077083;28;20036;-70
2021/03/29 05:52:40;;;;;;;2.30;1.30;;;9.10;73.00;;;;;;5076529;28;20069;-70
2021/03/29 05:55:11;;;;;;;2.45;1.40;;;9.10;72.90;;;;;;5076525;28;20025;-71
2021/03/29 05:57:42;;;;;;;1.52;1.25;;;9.20;72.90;;;;;;5075169;28;20043;-71
2021/03/29 06:00:31;;;;;;;1.98;1.38;;;9.20;72.90;;;;;;5076882;28;20120;-70
2021/03/29 06:03:26;;;;;;;2.65;1.40;;;9.20;72.80;;;;;;5069650;28;20462;-72
2021/03/29 06:06:00;;;;;;;2.10;1.48;;;9.30;72.80;;;;;;5076379;28;20024;-70
2021/03/29 06:08:27;;;;;;;1.33;1.23;;;9.30;72.80;;;;;;5076141;28;20035;-71
2021/03/29 06:10:54;;;;;;;4.03;1.70;;;9.30;72.70;;;;;;5075014;28;20449;-70
2021/03/29 06:13:31;;;;;;;3.10;1.50;;;9.40;72.80;;;;;;5075780;28;20135;-70
2021/03/29 06:16:07;;;;;;;2.03;1.88;;;9.40;72.70;;;;;;5076072;28;20027;-71
2021/03/29 06:18:34;;;;;;;2.00;1.77;;;9.40;73.30;;;;;;5075744;28;20040;-71
2021/03/29 06:21:11;;;;;;;1.65;1.50;;;9.40;72.80;;;;;;5074496;28;20078;-71
2021/03/29 06:23:41;;;;;;;1.67;1.38;;;9.50;72.80;;;;;;5075672;28;20027;-72
2021/03/29 06:26:30;;;;;;;3.95;1.58;;;9.50;72.70;;;;;;5075722;28;20020;-71
2021/03/29 06:28:56;;;;;;;1.48;1.20;;;9.60;72.60;;;;;;5076218;28;20465;-71
2021/03/29 06:31:26;;;;;;;1.75;1.27;;;9.60;72.60;;;;;;5076210;28;20040;-72
2021/03/29 06:33:53;;;;;;;1.33;1.23;;;9.60;72.60;;;;;;5075702;28;20064;-71
2021/03/29 06:36:33;;;;;;;3.30;1.70;;;9.60;72.70;;;;;;5075562;28;20039;-71
2021/03/29 06:39:20;;;;;;;2.33;1.77;;;9.60;72.60;;;;;;5075004;28;20056;-71
2021/03/29 06:41:56;;;;;;;1.48;1.38;;;9.70;72.70;;;;;;5075365;28;20032;-72
2021/03/29 06:44:30;;;;;;;2.90;1.60;;;9.70;72.70;;;;;;5075547;28;20025;-72
2021/03/29 06:47:07;;;;;;;2.60;1.48;;;9.70;72.70;;;;;;5075467;28;20116;-72
2021/03/29 06:49:44;;;;;;;2.50;1.88;;;9.70;72.60;;;;;;5075401;28;20052;-72
2021/03/29 06:52:31;;;;;;;3.15;1.70;;;9.70;72.60;;;;;;5074049;28;20392;-70
2021/03/29 06:55:17;;;;;;;1.45;1.35;;;9.70;72.60;;;;;;5075415;28;20028;-71
2021/03/29 06:57:43;;;;;;;1.67;1.42;;;9.80;72.60;;;;;;5073994;28;20035;-70
2021/03/29 07:00:15;;;;;;;1.83;1.30;;;9.80;72.70;;;;;;5075120;28;20032;-70
2021/03/29 07:02:47;;;;;;;1.92;1.30;;;9.80;72.70;;;;;;5075729;28;20542;-71
2021/03/29 07:05:15;;;;;;;3.75;1.50;;;9.80;72.70;;;;;;5074659;28;20026;-71
2021/03/29 07:07:41;;;;;;;2.65;1.40;;;9.90;72.80;;;;;;5072508;28;20058;-70
2021/03/29 07:10:09;;;;;;;2.05;1.85;;;9.90;72.70;;;;;;5074883;28;20032;-71
2021/03/29 07:12:38;;;;;;;1.77;1.50;;;9.90;72.60;;;;;;5075510;28;20027;-70
2021/03/29 07:15:12;;;;;;;1.48;1.38;;;10.00;72.70;;;;;;5075070;28;20461;-71
2021/03/29 07:17:40;;;;;;;4.95;1.83;;;10.00;72.60;;;;;;5073589;28;20495;-71
2021/03/29 07:20:09;;;;;;;1.80;1.50;;;10.00;72.60;;;;;;5074551;28;20112;-71
2021/03/29 07:22:40;;;;;;;1.83;1.50;;;10.10;72.60;;;;;;5073018;28;20036;-71
2021/03/29 07:25:09;;;;;;;1.50;1.10;;;10.10;72.60;;;;;;5074566;28;20028;-71
2021/03/29 07:27:40;;;;;;;4.93;1.60;;;10.20;72.50;;;;;;5074824;28;20020;-71
2021/03/29 07:30:07;;;;;;;3.63;1.52;;;10.30;72.50;;;;;;5072804;28;20277;-71
2021/03/29 07:32:36;;;;;;;2.60;1.45;;;10.30;72.40;;;;;;5074243;28;20016;-71
2021/03/29 07:35:05;;;;;;;1.90;1.65;;;10.40;72.40;;;;;;5074281;28;20023;-71
2021/03/29 07:37:52;;;;;;;1.50;1.38;;;10.40;72.30;;;;;;5074275;28;20027;-71
2021/03/29 07:40:20;;;;;;;1.35;1.25;;;10.50;72.20;;;;;;5074642;28;20035;-71
2021/03/29 07:42:51;;;;;;;3.20;1.70;;;10.50;72.20;;;;;;5074155;28;20423;-70
2021/03/29 07:45:20;;;;;;;2.33;1.80;;;10.60;72.20;;;;;;5074619;28;20277;-70
2021/03/29 07:47:53;;;;;;;3.40;2.03;;;10.60;72.10;;;;;;5074000;28;20396;-70
2021/03/29 07:50:39;;;;;;;1.85;1.52;;;10.70;72.80;;;;;;5073070;28;20085;-71
2021/03/29 07:53:18;;;;;;;2.35;1.50;;;10.70;72.00;;;;;;5073824;28;20089;-71
2021/03/29 07:55:48;;;;;;;;;;;10.80;72.10;;;;;;5073830;28;20056;-71
2021/03/29 07:58:19;;;;;;;1.20;1.10;;;10.80;72.00;;;;;;5073454;28;19905;-71
2021/03/29 08:00:48;;;;;;;1.95;1.48;;;10.90;72.00;;;;;;5074450;28;20028;-70
2021/03/29 08:03:13;;;;;;;1.98;1.30;;;11.00;71.90;;;;;;5072785;28;20425;-71
2021/03/29 08:05:40;;;;;;;2.72;1.65;;;11.10;71.80;;;;;;5073920;28;20031;-70
2021/03/29 08:08:26;;;;;;;3.35;2.08;;;11.10;71.60;;;;;;5074225;28;20047;-71
2021/03/29 08:11:01;;;;;;;1.50;1.38;;;11.20;71.60;;;;;;5073682;28;20031;-71
2021/03/29 08:13:49;;;;;;;2.30;1.33;;;11.30;71.70;;;;;;5073783;28;20107;-71
2021/03/29 08:16:16;;;;;;;2.70;1.50;;;11.40;71.70;;;;;;5073773;28;20473;-71
2021/03/29 08:19:06;;;;;;;3.60;1.73;;;11.40;71.60;;;;;;5073520;28;20033;-72
2021/03/29 08:21:55;;;;;;;2.70;1.77;;;11.50;71.50;;;;;;5073469;28;20029;-71
2021/03/29 08:24:22;;;;;;;3.22;2.55;;;11.60;71.40;;;;;;5072355;28;20116;-71
2021/03/29 08:26:48;;;;;;;1.38;1.23;;;11.60;71.40;;;;;;5072253;28;20488;-71
2021/03/29 08:29:17;;;;;;;2.05;1.40;;;11.60;71.50;;;;;;5072143;28;20028;-71
2021/03/29 08:32:04;;;;;;;2.22;1.63;;;11.70;71.40;;;;;;5073467;28;20601;-71
2021/03/29 08:34:52;;;;;;;1.45;1.25;;;11.80;71.30;;;;;;5073496;28;20482;-70
2021/03/29 08:37:25;;;;;;;3.28;1.60;;;11.80;71.30;;;;;;5073396;28;20020;-70
2021/03/29 08:39:53;;;;;;;2.80;1.52;;;11.90;71.30;;;;;;5073825;28;20103;-71
2021/03/29 08:42:21;;;;;;;0.95;0.90;;;11.90;71.20;;;;;;5073230;28;20040;-71
2021/03/29 08:44:49;;;;;;;1.58;1.33;;;12.00;71.30;;;;;;5073386;28;20103;-71
2021/03/29 08:47:19;;;;;;;1.20;1.10;;;12.10;71.10;;;;;;5073221;28;20386;-70
2021/03/29 08:49:50;;;;;;;4.50;1.80;;;12.20;71.00;;;;;;5073555;28;20066;-70
2021/03/29 08:52:16;;;;;;;3.85;1.70;;;12.20;71.00;;;;;;5073263;28;20029;-71
2021/03/29 08:54:54;;;;;;;1.95;1.30;;;12.30;70.90;;;;;;5073714;28;20026;-70
2021/03/29 08:57:26;;;;;;;2.15;1.40;;;12.40;70.80;;;;;;5073704;28;20026;-71
2021/03/29 09:00:00;;;;;;;1.67;1.25;;;12.50;70.90;;;;;;5073048;28;20021;-70
2021/03/29 09:02:26;;;;;;;1.63;1.25;;;12.60;70.70;;;;;;5071663;28;20031;-71
2021/03/29 09:04:57;;;;;;;1.27;1.10;;;12.60;70.50;;;;;;5073031;28;20031;-71
2021/03/29 09:07:36;;;;;;;3.00;1.85;;;12.70;70.50;;;;;;5073622;28;20482;-71
2021/03/29 09:10:23;;;;;;;2.00;1.17;;;12.80;70.20;;;;;;5073383;28;20066;-71
2021/03/29 09:13:04;;;;;;;4.10;2.00;;;12.90;70.10;;;;;;5073054;28;20055;-71
2021/03/29 09:15:32;;;;;;;2.50;1.80;;;13.00;69.80;;;;;;5073527;28;20016;-71
2021/03/29 09:18:04;;;;;;;2.38;1.60;;;13.00;69.80;;;;;;5072971;28;20070;-71
2021/03/29 09:20:37;;;;;;;2.45;1.60;;;13.10;69.60;;;;;;5072655;28;20052;-71
2021/03/29 09:23:04;;;;;;;3.50;1.98;;;13.20;69.50;;;;;;5073405;28;20376;-71
2021/03/29 09:25:34;;;;;;;2.10;1.80;;;13.30;69.40;;;;;;5073435;28;20430;-71
2021/03/29 09:28:22;;;;;;;3.25;2.10;;;13.40;69.30;;;;;;5072864;28;20497;-71
2021/03/29 09:30:51;;;;;;;2.10;1.58;;;13.50;69.00;;;;;;5073398;28;20059;-71
2021/03/29 09:33:17;;;;;;;3.05;2.15;;;13.50;69.00;;;;;;5073224;28;20369;-71
2021/03/29 09:35:44;;;;;;;2.15;1.95;;;13.60;69.20;;;;;;5073232;28;20066;-71
2021/03/29 09:38:11;;;;;;;2.75;1.85;;;13.60;68.70;;;;;;5071586;28;20029;-71
2021/03/29 09:40:37;;;;;;;2.25;1.77;;;13.70;68.40;;;;;;5072714;28;20032;-71
2021/03/29 09:43:03;;;;;;;2.58;1.60;;;13.80;68.30;;;;;;5072755;28;20334;-71
2021/03/29 09:45:31;;;;;;;2.25;1.40;;;13.80;69.00;;;;;;5072691;28;20107;-71
2021/03/29 09:48:04;;;;;;;2.70;1.70;;;13.90;68.10;;;;;;5072667;28;20496;-70
2021/03/29 09:50:33;;;;;;;2.33;1.55;;;14.00;67.90;;;;;;5072725;28;20028;-72
2021/03/29 09:53:12;;;;;;;1.90;1.30;;;14.00;68.00;;;;;;5072659;28;20016;-71
2021/03/29 09:55:52;;;;;;;1.83;1.27;;;14.10;67.80;;;;;;5072651;28;20078;-71
2021/03/29 09:58:23;;;;;;;1.38;1.27;;;14.20;67.70;;;;;;5073118;28;20013;-71
2021/03/29 10:00:51;;;;;;;2.55;1.60;;;14.30;67.50;;;;;;5072549;28;20051;-71
2021/03/29 10:03:18;;;;;;;3.67;1.98;;;14.30;67.30;;;;;;5072406;28;20354;-71
2021/03/29 10:05:45;;;;;;;3.17;1.50;;;14.40;66.90;;;;;;5073042;28;20017;-71
2021/03/29 10:08:11;;;;;;;1.45;1.35;;;14.50;66.80;;;;;;5072356;28;20100;-72
2021/03/29 10:10:37;;;;;;;3.50;2.35;;;14.60;66.80;;;;;;5072961;28;20108;-75
2021/03/29 10:13:06;;;;;;;1.92;1.50;;;14.60;66.30;;;;;;5072389;28;20465;-72
2021/03/29 10:15:33;;;;;;;1.67;1.52;;;14.60;66.30;;;;;;5075715;28;20023;-71
2021/03/29 10:18:12;;;;;;;2.40;1.67;;;14.60;66.40;;;;;;5076515;28;20021;-72
2021/03/29 10:20:40;;;;;;;4.18;2.35;;;14.70;66.00;;;;;;5075745;28;20056;-72
2021/03/29 10:23:30;;;;;;;2.22;1.67;;;14.70;66.00;;;;;;5075984;28;20096;-72
2021/03/29 10:26:10;;;;;;;;;;;14.80;66.10;;;;;;5076924;28;20403;-71
2021/03/29 10:28:37;;;;;;;2.65;1.27;;;14.80;66.20;;;;;;5076394;28;19995;-71
2021/03/29 10:31:03;;;;;;;1.58;1.38;;;14.90;66.10;;;;;;5075786;28;20020;-71
2021/03/29 10:33:28;;;;;;;1.80;1.60;;;15.00;65.80;;;;;;5075720;28;20078;-71
2021/03/29 10:35:54;;;;;;;4.25;2.45;;;15.00;65.40;;;;;;5075764;28;20029;-71
2021/03/29 10:38:19;;;;;;;3.22;1.58;;;15.00;65.10;;;;;;5074406;28;20031;-71
2021/03/29 10:40:45;;;;;;;3.72;1.85;;;15.10;65.20;;;;;;5075619;28;20112;-71
2021/03/29 10:43:10;;;;;;;1.52;1.30;;;15.10;65.00;;;;;;5075685;28;20074;-71
2021/03/29 10:45:36;;;;;;;3.05;1.70;;;15.20;64.80;;;;;;5076119;28;20025;-71
2021/03/29 10:48:02;;;;;;;2.28;1.70;;;15.20;64.60;;;;;;5074206;28;20044;-71
2021/03/29 10:50:27;;;;;;;4.60;2.00;;;15.20;64.60;;;;;;5074302;28;20111;-71
2021/03/29 10:52:53;;;;;;;2.65;1.73;;;15.30;64.40;;;;;;5075513;28;20028;-71
2021/03/29 10:55:20;;;;;;;1.98;1.58;;;15.30;64.30;;;;;;5075473;28;20028;-71
2021/03/29 10:57:45;;;;;;;1.38;1.27;;;15.30;64.20;;;;;;5075383;28;20024;-71
2021/03/29 11:00:11;;;;;;;1.58;1.42;;;15.40;64.00;;;;;;5075449;28;20040;-71
2021/03/29 11:02:37;;;;;;;1.67;1.10;;;15.60;64.00;;;;;;5075526;28;20112;-71
2021/03/29 11:05:07;;;;;;;1.85;1.50;;;15.70;63.60;;;;;;5075550;28;20453;-70
2021/03/29 11:07:33;;;;;;;3.47;1.52;;;15.70;63.30;;;;;;5075715;28;20067;-71
2021/03/29 11:09:58;;;;;;;3.10;1.45;;;15.80;63.20;;;;;;5075261;28;20021;-71
2021/03/29 11:12:24;;;;;;;1.20;1.10;;;15.80;63.20;;;;;;5075621;28;20454;-71
2021/03/29 11:14:50;;;;;;;1.80;1.30;;;15.90;63.30;;;;;;5075113;28;20504;-71
2021/03/29 11:17:17;;;;;;;1.73;0.90;;;16.10;63.10;;;;;;5075273;28;20032;-71
2021/03/29 11:19:43;;;;;;;1.08;0.88;;;16.20;63.00;;;;;;5074962;28;20048;-71
2021/03/29 11:22:08;;;;;;;1.48;1.15;;;16.30;62.70;;;;;;5074799;28;20040;-71
2021/03/29 11:24:34;;;;;;;1.60;1.40;;;16.40;62.40;;;;;;5074764;28;20027;-71
2021/03/29 11:26:59;;;;;;;2.97;1.80;;;16.50;62.30;;;;;;5074821;28;20501;-71
2021/03/29 11:29:25;;;;;;;2.83;1.63;;;16.50;62.20;;;;;;5074692;28;20029;-71
2021/03/29 11:31:50;;;;;;;2.00;1.42;;;16.50;62.10;;;;;;5074569;28;20068;-71
2021/03/29 11:34:17;;;;;;;1.42;1.30;;;16.50;62.00;;;;;;5075198;28;20099;-71
2021/03/29 11:36:43;;;;;;;1.65;1.30;;;16.60;61.80;;;;;;5074534;28;20020;-71
2021/03/29 11:39:12;;;;;;;1.25;1.15;;;16.70;61.60;;;;;;5073323;28;20016;-71
2021/03/29 11:41:38;;;;;;;1.63;1.08;;;16.80;61.40;;;;;;5074961;28;20033;-71
2021/03/29 11:44:04;;;;;;;1.20;1.10;;;16.90;61.40;;;;;;5074893;28;20021;-71
2021/03/29 11:46:30;;;;;;;1.73;1.02;;;17.00;61.20;;;;;;5074955;28;20024;-71
2021/03/29 11:48:56;;;;;;;1.67;1.10;;;17.10;61.00;;;;;;5074580;28;20055;-71
2021/03/29 11:51:21;;;;;;;1.70;1.38;;;17.20;60.60;;;;;;5074506;28;20035;-71
2021/03/29 11:53:47;;;;;;;1.38;1.27;;;17.30;60.50;;;;;;5074490;28;20016;-71
2021/03/29 11:56:12;;;;;;;1.63;1.52;;;17.40;60.50;;;;;;5074121;28;20021;-71
2021/03/29 11:58:38;;;;;;;2.05;1.65;;;17.40;60.10;;;;;;5072648;28;20395;-70
2021/03/29 12:04:11;;;;;;;1.20;1.10;;;17.60;60.00;;;;;;5069354;28;20033;-71
2021/03/29 12:09:17;;;;;;;1.25;1.15;;;18.10;58.90;;;;;;5074249;28;20458;-71
2021/03/29 12:11:58;;;;;;;1.05;0.98;;;18.50;58.40;;;;;;5072685;28;20029;-70
2021/03/29 12:14:29;;;;;;;2.03;1.35;;;19.00;58.00;;;;;;5074552;28;20444;-70
2021/03/29 12:16:56;;;;;;;1.67;1.20;;;19.50;57.00;;;;;;5074379;28;20025;-71
2021/03/29 12:19:22;;;;;;;1.58;1.17;;;19.80;56.70;;;;;;5073742;28;20509;-70
2021/03/29 12:21:52;;;;;;;1.48;1.38;;;19.90;56.40;;;;;;5074098;28;20043;-71
2021/03/29 12:24:21;;;;;;;1.67;1.10;;;20.10;55.90;;;;;;5072763;28;20066;-71
2021/03/29 12:26:49;;;;;;;1.15;1.05;;;20.10;55.60;;;;;;5072208;28;20021;-71
2021/03/29 12:29:19;;;;;;;1.77;1.55;;;19.90;56.10;;;;;;5073474;28;20021;-71
2021/03/29 12:31:46;;;;;;;1.30;1.20;;;19.90;56.10;;;;;;5073654;28;20024;-71
2021/03/29 12:34:12;;;;;;;1.20;1.00;;;19.80;56.00;;;;;;5072299;28;20030;-72
2021/03/29 12:36:47;;;;;;;1.30;1.20;;;19.80;56.20;;;;;;5072991;28;20020;-70
2021/03/29 12:41:49;;;;;;;1.63;1.23;;;19.90;55.60;;;;;;5073390;28;20514;-70
2021/03/29 12:44:18;;;;;;;1.40;1.13;;;20.00;55.50;;;;;;5073195;28;20354;-70
2021/03/29 12:46:47;;;;;;;1.23;1.10;;;20.10;55.40;;;;;;5073808;28;20031;-70
2021/03/29 12:49:15;;;;;;;1.20;1.10;;;20.20;55.30;;;;;;5071944;28;20027;-70
2021/03/29 12:51:41;;;;;;;1.45;1.00;;;20.40;55.20;;;;;;5073462;28;20024;-71
2021/03/29 12:54:14;;;;;;;1.60;1.17;;;20.80;54.70;;;;;;5073165;28;20028;-70
2021/03/29 12:56:42;;;;;;;2.08;1.35;;;21.00;54.20;;;;;;5073156;28;20082;-70
2021/03/29 12:59:07;;;;;;;2.15;1.50;;;21.10;53.70;;;;;;5073855;28;20369;-70
2021/03/29 13:01:35;;;;;;;1.45;1.02;;;21.10;53.70;;;;;;5073151;28;20029;-70
2021/03/29 13:04:08;;;;;;;1.20;1.08;;;21.20;53.40;;;;;;5071855;28;20059;-71
2021/03/29 13:06:39;;;;;;;1.67;1.10;;;21.20;53.60;;;;;;5073108;28;20602;-71
2021/03/29 13:09:08;;;;;;;1.60;1.27;;;21.40;53.50;;;;;;5073548;28;20024;-71
2021/03/29 13:11:35;;;;;;;2.00;1.25;;;21.70;52.80;;;;;;5073200;28;20020;-71